< Typhoon 198417 1984 Season Typhoon 198419 >
Typhoon 198418 (PHYLLIS)
General InformationTrack Information on Google MapsDetailed Wind InformationList of All Images || Disaster Info.ResourceGoogle EarthGE AnimationAtom FeedGeoJSON
Detalied Best Track (Time Zone = UTC)
Year Month Day Hour Lat. Long. Pressure (hPa) Wind (kt) Class Image Chart
1984 10 9 00 16.0 149.0 1006 0 2 Image Chart
1984 10 9 06 17.0 150.0 1002 0 2 Image Chart
1984 10 9 12 18.0 151.0 1004 0 2 Image Chart
1984 10 9 18 19.5 152.0 1006 0 2 Image Chart
1984 10 10 00 21.0 153.0 1006 0 2 Image Chart
1984 10 10 06 22.0 154.0 1006 0 2 Image Chart
1984 10 10 12 21.0 154.0 1004 0 2 Image Chart
1984 10 10 18 20.5 153.5 1004 0 2 Image Chart
1984 10 11 00 20.0 153.0 1002 0 2 Image Chart
1984 10 11 06 20.2 152.3 990 45 3 Image Chart
1984 10 11 12 20.6 152.1 990 45 3 Image Chart
1984 10 11 18 21.3 151.8 990 50 4 Image Chart
1984 10 12 00 22.2 151.2 985 60 4 Image Chart
1984 10 12 06 23.0 151.2 980 60 4 Image Chart
1984 10 12 12 23.8 151.1 975 65 5 Image Chart
1984 10 12 18 24.8 151.2 980 60 4 Image Chart
1984 10 13 00 25.9 151.2 985 55 4 Image Chart
1984 10 13 06 27.7 151.4 990 50 4 Image Chart
1984 10 13 12 29.8 151.7 996 40 3 Image Chart
1984 10 13 18 31.8 152.0 996 40 3 Image Chart
1984 10 14 00 34.5 153.0 998 40 3 Image Chart
1984 10 14 06 38.0 157.0 1000 0 2 Image Chart
1984 10 14 12 41.5 161.5 1000 0 6 Image Chart
1984 10 14 18 45.0 166.0 1000 0 6 Image Chart
Japan Meteorological Agency Best Track Data | Correction Date : 1992-10-21
< Typhoon 198417 1984 Season Typhoon 198419 >

Help